createdAt,value
2019-05-09T00:00:57.020Z,94115.77
2019-05-09T00:03:27.341Z,94116.42
2019-05-09T00:05:57.269Z,94116.89
2019-05-09T00:08:27.385Z,94117.55
2019-05-09T00:10:57.322Z,94113.97
2019-05-09T00:13:27.515Z,94117.72
2019-05-09T00:15:57.525Z,94122.11
2019-05-09T00:18:27.675Z,94128.28
2019-05-09T00:21:17.639Z,94128.29
2019-05-09T00:23:47.617Z,94127.45
2019-05-09T00:26:17.684Z,94125.67
2019-05-09T00:28:49.459Z,94126.66
2019-05-09T00:31:37.490Z,94127.62
2019-05-09T00:34:09.166Z,94134.30
2019-05-09T00:36:40.196Z,94132.16
2019-05-09T00:39:10.228Z,94133.30
2019-05-09T00:41:40.199Z,94135.09
2019-05-09T00:44:17.628Z,94130.04
2019-05-09T00:46:49.491Z,94124.84
2019-05-09T00:49:23.422Z,94131.51
2019-05-09T00:51:54.031Z,94121.90
2019-05-09T00:54:24.675Z,94127.44
2019-05-09T00:56:54.701Z,94126.77
2019-05-09T00:59:24.742Z,94126.93
2019-05-09T01:01:54.943Z,94127.09
2019-05-09T01:04:24.846Z,94117.83
2019-05-09T01:06:54.851Z,94121.70
2019-05-09T01:09:24.808Z,94118.60
2019-05-09T01:11:55.032Z,94117.61
2019-05-09T01:14:25.038Z,94107.55
2019-05-09T01:16:55.281Z,94110.14
2019-05-09T01:19:25.288Z,94107.72
2019-05-09T01:21:55.328Z,94100.05
2019-05-09T01:24:25.346Z,94102.35
2019-05-09T01:26:55.385Z,94106.88
2019-05-09T01:29:25.387Z,94107.55
2019-05-09T01:31:57.250Z,94100.05
2019-05-09T01:34:28.909Z,94109.19
2019-05-09T01:37:06.773Z,94095.50
2019-05-09T01:39:37.483Z,94101.05
2019-05-09T01:42:08.222Z,94100.39
2019-05-09T01:44:38.291Z,94098.10
2019-05-09T01:47:08.433Z,94097.45
2019-05-09T01:49:38.865Z,94091.77
2019-05-09T01:52:09.093Z,94088.64
2019-05-09T01:54:40.804Z,94089.97
2019-05-09T01:57:11.155Z,94090.61
2019-05-09T01:59:41.202Z,94082.33
2019-05-09T02:02:11.433Z,94087.67
2019-05-09T02:04:41.372Z,94091.09
2019-05-09T02:07:13.300Z,94094.20
2019-05-09T02:09:43.522Z,94095.02
2019-05-09T02:12:14.288Z,94091.77
2019-05-09T02:14:46.145Z,94101.38
2019-05-09T02:17:23.559Z,94097.30
2019-05-09T02:19:53.657Z,94089.19
2019-05-09T02:22:36.593Z,94088.70
2019-05-09T02:25:08.995Z,94088.53
2019-05-09T02:27:39.072Z,94085.11
2019-05-09T02:30:11.691Z,94083.33
2019-05-09T02:32:45.009Z,94086.09
2019-05-09T02:35:15.271Z,94082.53
2019-05-09T02:37:45.510Z,94082.84
2019-05-09T02:40:18.730Z,94082.20
2019-05-09T02:42:49.696Z,94078.77
2019-05-09T02:45:20.471Z,94082.36
2019-05-09T02:47:50.714Z,94079.94
2019-05-09T02:50:21.913Z,94072.77
2019-05-09T02:52:52.184Z,94074.73
2019-05-09T02:55:22.189Z,94081.72
2019-05-09T02:57:55.510Z,94076.99
2019-05-09T03:00:39.499Z,94079.11
2019-05-09T03:03:15.634Z,94079.28
2019-05-09T03:05:48.510Z,94077.65
2019-05-09T03:08:19.236Z,94078.13
2019-05-09T03:10:50.172Z,94081.21
2019-05-09T03:13:20.397Z,94074.09
2019-05-09T03:15:52.044Z,94069.84
2019-05-09T03:18:22.153Z,94068.88
2019-05-09T03:20:59.878Z,94067.58
2019-05-09T03:23:29.930Z,94074.23
2019-05-09T03:26:00.262Z,94072.92
2019-05-09T03:28:39.059Z,94063.67
2019-05-09T03:31:10.822Z,94072.61
2019-05-09T03:33:41.159Z,94076.99
2019-05-09T03:36:11.515Z,94068.23
2019-05-09T03:38:41.695Z,94066.27
2019-05-09T03:41:12.299Z,94065.45
2019-05-09T03:43:42.339Z,94055.36
2019-05-09T03:46:14.013Z,94055.53
2019-05-09T03:48:58.335Z,94051.80
2019-05-09T03:51:28.589Z,94059.92
2019-05-09T03:53:58.663Z,94057.47
2019-05-09T03:56:30.474Z,94063.78
2019-05-09T03:59:00.480Z,94067.03
2019-05-09T04:01:30.521Z,94062.48
2019-05-09T04:04:00.591Z,94063.28
2019-05-09T04:06:31.199Z,94060.69
2019-05-09T04:09:01.133Z,94059.19
2019-05-09T04:11:32.738Z,94053.00
2019-05-09T04:14:08.328Z,94059.50
2019-05-09T04:16:38.833Z,94062.61
2019-05-09T04:19:08.856Z,94062.92
2019-05-09T04:21:38.979Z,94065.84
2019-05-09T04:24:08.911Z,94056.56
2019-05-09T04:29:32.255Z,94056.26
2019-05-09T04:32:02.264Z,94054.39
2019-05-09T04:34:32.306Z,94060.88
2019-05-09T04:37:02.250Z,94056.61
2019-05-09T04:39:32.290Z,94057.60
2019-05-09T04:42:05.350Z,94057.74
2019-05-09T04:44:37.519Z,94059.21
2019-05-09T04:47:08.909Z,94057.23
2019-05-09T04:49:43.805Z,94065.20
2019-05-09T04:52:11.112Z,94067.31
2019-05-09T04:54:41.292Z,94075.11
2019-05-09T04:57:11.316Z,94083.70
2019-05-09T04:59:41.283Z,94076.06
2019-05-09T05:02:12.931Z,94074.25
2019-05-09T05:04:42.971Z,94076.85
2019-05-09T05:07:13.038Z,94075.07
2019-05-09T05:09:43.062Z,94069.91
2019-05-09T05:12:13.088Z,94075.28
2019-05-09T05:14:43.117Z,94079.05
2019-05-09T05:17:13.337Z,94077.61
2019-05-09T05:19:43.232Z,94070.02
2019-05-09T05:22:15.017Z,94072.67
2019-05-09T05:24:48.778Z,94078.72
2019-05-09T05:27:19.020Z,94073.56
2019-05-09T05:29:49.169Z,94079.11
2019-05-09T05:32:20.834Z,94074.59
2019-05-09T05:35:09.847Z,94071.33
2019-05-09T05:37:39.851Z,94070.67
2019-05-09T05:40:33.623Z,94077.69
2019-05-09T05:43:03.670Z,94077.03
2019-05-09T05:45:37.436Z,94083.38
2019-05-09T05:48:11.127Z,94080.27
2019-05-09T05:50:40.076Z,94075.05
2019-05-09T05:53:09.778Z,94078.92
2019-05-09T05:55:39.781Z,94079.06
2019-05-09T05:58:09.704Z,94082.95
2019-05-09T06:00:42.255Z,94092.06
2019-05-09T06:03:12.458Z,94087.16
2019-05-09T06:05:43.348Z,94089.06
2019-05-09T06:08:13.287Z,94089.34
2019-05-09T06:10:43.977Z,94085.53
2019-05-09T06:13:13.999Z,94091.88
2019-05-09T06:15:44.152Z,94083.48
2019-05-09T06:18:14.230Z,94083.88
2019-05-09T06:20:45.698Z,94078.31
2019-05-09T06:23:17.599Z,94082.66
2019-05-09T06:25:48.584Z,94071.68
2019-05-09T06:28:19.694Z,94069.00
2019-05-09T06:30:50.070Z,94080.51
2019-05-09T06:33:20.081Z,94079.56
2019-05-09T06:35:50.205Z,94070.95
2019-05-09T06:38:20.227Z,94069.89
2019-05-09T06:40:50.266Z,94075.74
2019-05-09T06:43:21.912Z,94080.27
2019-05-09T06:46:02.575Z,94080.63
2019-05-09T06:48:33.700Z,94080.88
2019-05-09T06:51:03.899Z,94082.53
2019-05-09T06:53:34.454Z,94080.88
2019-05-09T06:56:04.601Z,94073.02
2019-05-09T06:58:40.478Z,94073.88
2019-05-09T07:01:28.626Z,94077.13
2019-05-09T07:04:09.581Z,94073.72
2019-05-09T07:06:48.090Z,94066.69
2019-05-09T07:09:28.106Z,94069.23
2019-05-09T07:11:58.833Z,94068.66
2019-05-09T07:14:40.987Z,94066.28
2019-05-09T07:17:11.936Z,94072.39
2019-05-09T07:19:43.871Z,94064.94
2019-05-09T07:22:24.469Z,94059.57
2019-05-09T07:25:11.113Z,94057.48
2019-05-09T07:27:41.961Z,94056.33
2019-05-09T07:30:23.947Z,94048.96
2019-05-09T07:33:11.551Z,94050.81
2019-05-09T07:35:41.833Z,94044.26
2019-05-09T07:38:11.809Z,94043.39
2019-05-09T07:40:41.964Z,94040.30
2019-05-09T07:43:11.983Z,94041.59
2019-05-09T07:45:43.558Z,94038.72
2019-05-09T07:48:13.531Z,94047.14
2019-05-09T07:50:43.548Z,94049.09
2019-05-09T07:53:13.596Z,94048.28
2019-05-09T07:55:43.610Z,94046.23
2019-05-09T07:58:14.403Z,94047.63
2019-05-09T08:00:44.914Z,94040.82
2019-05-09T08:03:14.935Z,94038.03
2019-05-09T08:05:45.053Z,94034.81
2019-05-09T08:08:18.717Z,94034.93
2019-05-09T08:10:48.871Z,94036.89
2019-05-09T08:13:21.414Z,94042.86
2019-05-09T08:15:50.683Z,94042.30
2019-05-09T08:18:20.805Z,94045.38
2019-05-09T08:20:50.876Z,94039.23
2019-05-09T08:23:20.954Z,94041.58
2019-05-09T08:25:51.067Z,94041.19
2019-05-09T08:28:21.093Z,94046.23
2019-05-09T08:30:51.116Z,94042.28
2019-05-09T08:33:23.503Z,94044.34
2019-05-09T08:35:53.836Z,94039.41
2019-05-09T08:38:30.529Z,94032.22
2019-05-09T08:41:13.142Z,94027.08
2019-05-09T08:43:44.102Z,94033.17
2019-05-09T08:46:14.314Z,94030.22
2019-05-09T08:48:44.396Z,94024.58
2019-05-09T08:51:18.115Z,94025.34
2019-05-09T08:53:48.531Z,94028.88
2019-05-09T08:56:18.501Z,94022.41
2019-05-09T08:58:49.608Z,94023.05
2019-05-09T09:01:30.599Z,94018.00
2019-05-09T09:03:51.484Z,94012.88
2019-05-09T09:06:22.791Z,94014.75
2019-05-09T09:08:52.859Z,94014.52
2019-05-09T09:11:22.876Z,94009.23
2019-05-09T09:13:53.107Z,94005.73
2019-05-09T09:16:23.007Z,94005.88
2019-05-09T09:18:54.300Z,94012.91
2019-05-09T09:21:24.204Z,93999.66
2019-05-09T09:23:54.298Z,94002.48
2019-05-09T09:26:24.549Z,94005.33
2019-05-09T09:28:54.520Z,94005.56
2019-05-09T09:31:24.486Z,94002.42
2019-05-09T09:33:54.567Z,94002.79
2019-05-09T09:36:24.649Z,93995.86
2019-05-09T09:38:54.667Z,93993.13
2019-05-09T09:41:24.711Z,93995.12
2019-05-09T09:43:54.662Z,93987.85
2019-05-09T09:46:24.558Z,93982.38
2019-05-09T09:48:54.566Z,93981.19
2019-05-09T09:51:24.568Z,93982.23
2019-05-09T09:53:54.595Z,93978.73
2019-05-09T09:56:24.516Z,93983.66
2019-05-09T09:59:08.267Z,93978.89
2019-05-09T10:01:40.159Z,93957.63
2019-05-09T10:04:24.025Z,93957.63
2019-05-09T10:06:52.965Z,93964.45
2019-05-09T10:09:21.538Z,93988.98
2019-05-09T10:11:51.583Z,93975.88
2019-05-09T10:14:23.600Z,93971.47
2019-05-09T10:17:01.248Z,93962.52
2019-05-09T10:19:49.255Z,93968.18
2019-05-09T10:22:25.760Z,93969.42
2019-05-09T10:24:59.231Z,93970.42
2019-05-09T10:27:31.849Z,93973.03
2019-05-09T10:30:04.329Z,93975.42
2019-05-09T10:32:35.204Z,93975.66
2019-05-09T10:35:08.719Z,93972.09
2019-05-09T10:37:48.654Z,93972.33
2019-05-09T10:40:23.968Z,93974.81
2019-05-09T10:42:58.796Z,93971.69
2019-05-09T10:45:31.214Z,93978.88
2019-05-09T10:48:01.318Z,93989.89
2019-05-09T10:50:33.680Z,93989.81
2019-05-09T10:53:03.500Z,94004.88
2019-05-09T10:55:38.237Z,94007.52
2019-05-09T10:58:08.086Z,94009.06
2019-05-09T11:00:39.595Z,94009.98
2019-05-09T11:03:09.772Z,94020.65
2019-05-09T11:05:40.046Z,94022.61
2019-05-09T11:08:09.948Z,94022.92
2019-05-09T11:10:40.045Z,94032.57
2019-05-09T11:13:09.916Z,94048.39
2019-05-09T11:15:39.955Z,94049.91
2019-05-09T11:18:09.885Z,94054.95
2019-05-09T11:20:39.894Z,94086.80
2019-05-09T11:23:09.936Z,94082.42
2019-05-09T11:25:39.994Z,94090.97
2019-05-09T11:28:14.364Z,94094.53
2019-05-09T11:30:41.753Z,94103.21
2019-05-09T11:33:11.826Z,94113.36
2019-05-09T11:35:41.791Z,94122.44
2019-05-09T11:38:11.916Z,94085.39
2019-05-09T11:40:42.180Z,94074.22
2019-05-09T11:43:12.186Z,94055.56
2019-05-09T11:45:42.085Z,94055.66
2019-05-09T11:48:12.104Z,94053.45
2019-05-09T11:50:42.083Z,94047.25
2019-05-09T11:53:12.091Z,94044.23
2019-05-09T11:55:43.342Z,94041.00
2019-05-09T11:58:13.652Z,94038.69
2019-05-09T12:00:43.917Z,94035.12
2019-05-09T12:03:14.969Z,94032.77
2019-05-09T12:05:47.725Z,94026.88
2019-05-09T12:08:21.577Z,94025.82
2019-05-09T12:10:52.424Z,94023.20
2019-05-09T12:13:22.432Z,94018.74
2019-05-09T12:15:52.610Z,94008.14
2019-05-09T12:18:25.534Z,94020.44
2019-05-09T12:20:57.682Z,94022.30
2019-05-09T12:23:29.716Z,94007.96
2019-05-09T12:26:08.157Z,94007.15
2019-05-09T12:28:38.802Z,94005.72
2019-05-09T12:31:08.830Z,94000.68
2019-05-09T12:33:40.187Z,93996.20
2019-05-09T12:36:10.957Z,94006.64
2019-05-09T12:38:45.829Z,94001.56
2019-05-09T12:41:18.668Z,93985.83
2019-05-09T12:43:54.318Z,93977.78
2019-05-09T12:46:28.170Z,93980.52
2019-05-09T12:48:59.306Z,93982.87
2019-05-09T12:51:30.996Z,93984.64
2019-05-09T12:54:04.531Z,93985.70
2019-05-09T12:56:38.628Z,93991.16
2019-05-09T12:59:13.558Z,93983.80
2019-05-09T13:01:49.102Z,93985.20
2019-05-09T13:04:22.656Z,93979.83
2019-05-09T13:07:02.798Z,93993.24
2019-05-09T13:09:41.779Z,93991.22
2019-05-09T13:12:22.066Z,93986.88
2019-05-09T13:14:58.771Z,93979.45
2019-05-09T13:17:38.414Z,93986.58
2019-05-09T13:20:13.230Z,93977.93
2019-05-09T13:23:09.740Z,93972.58
2019-05-09T13:25:50.383Z,93974.22
2019-05-09T13:28:29.581Z,93965.41
2019-05-09T13:31:09.505Z,93971.11
2019-05-09T13:33:45.312Z,93952.81
2019-05-09T13:36:20.794Z,93942.63
2019-05-09T13:39:03.889Z,93945.41
2019-05-09T13:41:39.772Z,93965.66
2019-05-09T13:44:19.223Z,93948.81
2019-05-09T13:46:53.124Z,93955.41
2019-05-09T13:49:24.435Z,93952.02
2019-05-09T13:52:03.532Z,93942.48
2019-05-09T13:54:28.582Z,93954.28
2019-05-09T13:57:01.520Z,93942.97
2019-05-09T13:59:30.767Z,93939.30
2019-05-09T14:02:01.983Z,93945.92
2019-05-09T14:04:32.835Z,93959.70
2019-05-09T14:07:03.998Z,93940.92
2019-05-09T14:09:34.027Z,93944.41
2019-05-09T14:12:05.099Z,93956.23
2019-05-09T14:14:35.073Z,93955.97
2019-05-09T14:17:05.177Z,93950.95
2019-05-09T14:19:45.720Z,93958.86
2019-05-09T14:22:08.969Z,93967.50
2019-05-09T14:24:38.989Z,93958.22
2019-05-09T14:27:08.953Z,93975.50
2019-05-09T14:29:39.315Z,93968.62
2019-05-09T14:32:09.431Z,93970.38
2019-05-09T14:34:42.742Z,93971.11
2019-05-09T14:37:11.178Z,93969.80
2019-05-09T14:39:54.994Z,93971.83
2019-05-09T14:42:13.178Z,93983.92
2019-05-09T14:44:43.270Z,93996.36
2019-05-09T14:47:13.275Z,94006.34
2019-05-09T14:49:44.602Z,94002.86
2019-05-09T14:52:15.830Z,94007.11
2019-05-09T14:54:48.316Z,94009.78
2019-05-09T14:57:17.691Z,94014.73
2019-05-09T14:59:47.663Z,94020.90
2019-05-09T15:02:18.060Z,94022.50
2019-05-09T15:04:48.671Z,94020.47
2019-05-09T15:07:19.902Z,94018.02
2019-05-09T15:09:50.399Z,94018.52
2019-05-09T15:12:20.706Z,94022.56
2019-05-09T15:14:52.028Z,94015.38
2019-05-09T15:17:22.355Z,94018.67
2019-05-09T15:19:59.579Z,94017.59
2019-05-09T15:22:24.017Z,94014.08
2019-05-09T15:24:53.973Z,94006.48
2019-05-09T15:27:24.914Z,94011.77
2019-05-09T15:29:54.926Z,94016.94
2019-05-09T15:32:25.205Z,94001.13
2019-05-09T15:34:57.565Z,94002.45
2019-05-09T15:37:28.548Z,94007.05
2019-05-09T15:39:58.924Z,94007.05
2019-05-09T15:42:30.589Z,94004.44
2019-05-09T15:45:00.596Z,94003.43
2019-05-09T15:47:37.845Z,93998.61
2019-05-09T15:50:19.259Z,94008.89
2019-05-09T15:52:40.853Z,93998.42
2019-05-09T15:55:11.257Z,93997.47
2019-05-09T15:57:41.263Z,93996.80
2019-05-09T16:00:13.934Z,93990.36
2019-05-09T16:02:43.996Z,94001.59
2019-05-09T16:05:14.079Z,93990.73
2019-05-09T16:07:44.045Z,94002.31
2019-05-09T16:10:15.132Z,94001.31
2019-05-09T16:12:45.284Z,93999.58
2019-05-09T16:15:18.552Z,93994.89
2019-05-09T16:17:48.760Z,94002.58
2019-05-09T16:20:36.454Z,93998.30
2019-05-09T16:22:52.430Z,94005.41
2019-05-09T16:25:22.609Z,94014.12
2019-05-09T16:27:52.587Z,94013.09
2019-05-09T16:30:22.986Z,94023.63
2019-05-09T16:32:53.033Z,94023.77
2019-05-09T16:35:23.030Z,94020.08
2019-05-09T16:38:05.148Z,94026.48
2019-05-09T16:40:25.213Z,94025.20
2019-05-09T16:42:55.180Z,94023.70
2019-05-09T16:45:25.256Z,94040.53
2019-05-09T16:47:57.424Z,94034.83
2019-05-09T16:50:27.036Z,94045.83
2019-05-09T16:52:58.430Z,94052.81
2019-05-09T16:55:31.318Z,94047.14
2019-05-09T16:58:01.729Z,94054.27
2019-05-09T17:00:34.551Z,94053.16
2019-05-09T17:03:08.001Z,94066.16
2019-05-09T17:05:37.535Z,94069.02
2019-05-09T17:08:08.152Z,94048.53
2019-05-09T17:10:38.633Z,94065.97
2019-05-09T17:13:08.609Z,94077.02
2019-05-09T17:15:39.063Z,94081.17
2019-05-09T17:18:10.088Z,94083.28
2019-05-09T17:20:47.603Z,94083.95
2019-05-09T17:23:21.673Z,94079.95
2019-05-09T17:25:51.693Z,94084.62
2019-05-09T17:28:21.781Z,94088.08
2019-05-09T17:30:51.841Z,94099.74
2019-05-09T17:33:21.856Z,94108.56
2019-05-09T17:35:51.966Z,94111.66
2019-05-09T17:38:21.937Z,94106.39
2019-05-09T17:40:51.948Z,94120.98
2019-05-09T17:43:21.922Z,94118.94
2019-05-09T17:45:51.930Z,94138.97
2019-05-09T17:48:22.884Z,94148.20
2019-05-09T17:50:53.895Z,94145.18
2019-05-09T17:53:24.387Z,94134.55
2019-05-09T17:55:54.349Z,94153.07
2019-05-09T17:58:29.820Z,94154.90
2019-05-09T18:00:57.704Z,94153.86
2019-05-09T18:03:29.174Z,94159.12
2019-05-09T18:05:59.526Z,94164.78
2019-05-09T18:08:29.500Z,94175.81
2019-05-09T18:10:59.526Z,94176.94
2019-05-09T18:13:31.693Z,94190.17
2019-05-09T18:16:02.266Z,94191.77
2019-05-09T18:18:32.355Z,94194.91
2019-05-09T18:21:02.337Z,94191.45
2019-05-09T18:23:32.329Z,94196.32
2019-05-09T18:26:02.327Z,94208.23
2019-05-09T18:28:32.301Z,94199.45
2019-05-09T18:31:02.324Z,94211.38
2019-05-09T18:33:37.981Z,94205.63
2019-05-09T18:36:09.324Z,94207.39
2019-05-09T18:38:39.373Z,94209.09
2019-05-09T18:41:10.243Z,94218.66
2019-05-09T18:43:40.385Z,94209.28
2019-05-09T18:46:10.399Z,94217.23
2019-05-09T18:48:40.309Z,94212.57
2019-05-09T18:51:10.380Z,94216.41
2019-05-09T18:53:40.355Z,94228.25
2019-05-09T18:56:10.457Z,94231.73
2019-05-09T18:58:40.506Z,94232.70
2019-05-09T19:01:10.586Z,94240.62
2019-05-09T19:03:40.554Z,94238.13
2019-05-09T19:06:10.569Z,94243.77
2019-05-09T19:08:40.547Z,94246.55
2019-05-09T19:11:10.619Z,94246.95
2019-05-09T19:13:40.599Z,94249.35
2019-05-09T19:16:14.890Z,94252.91
2019-05-09T19:18:45.410Z,94264.67
2019-05-09T19:21:20.941Z,94273.05
2019-05-09T19:23:50.927Z,94276.65
2019-05-09T19:26:35.806Z,94282.39
2019-05-09T19:29:09.384Z,94276.84
2019-05-09T19:31:40.075Z,94284.97
2019-05-09T19:34:10.043Z,94300.24
2019-05-09T19:36:40.050Z,94299.09
2019-05-09T19:39:10.437Z,94302.86
2019-05-09T19:41:40.756Z,94308.61
2019-05-09T19:44:10.792Z,94313.78
2019-05-09T19:46:42.070Z,94314.92
2019-05-09T19:49:12.205Z,94321.25
2019-05-09T19:51:42.226Z,94323.63
2019-05-09T19:54:12.193Z,94327.69
2019-05-09T19:56:42.196Z,94310.49
2019-05-09T19:59:13.140Z,94342.43
2019-05-09T20:01:43.179Z,94338.36
2019-05-09T20:04:13.221Z,94344.88
2019-05-09T20:06:43.244Z,94341.31
2019-05-09T20:09:14.858Z,94338.73
2019-05-09T20:12:02.605Z,94340.58
2019-05-09T20:14:35.443Z,94341.31
2019-05-09T20:17:05.538Z,94349.19
2019-05-09T20:19:35.512Z,94353.08
2019-05-09T20:22:05.632Z,94367.30
2019-05-09T20:24:35.712Z,94357.86
2019-05-09T20:27:05.857Z,94374.63
2019-05-09T20:29:35.892Z,94365.34
2019-05-09T20:32:05.966Z,94367.91
2019-05-09T20:34:36.031Z,94371.74
2019-05-09T20:37:06.031Z,94373.74
2019-05-09T20:39:36.175Z,94385.22
2019-05-09T20:42:06.435Z,94380.11
2019-05-09T20:44:36.670Z,94385.28
2019-05-09T20:47:07.046Z,94385.55
2019-05-09T20:49:37.219Z,94392.66
2019-05-09T20:52:07.485Z,94396.59
2019-05-09T20:54:37.714Z,94396.80
2019-05-09T20:57:07.902Z,94397.03
2019-05-09T20:59:38.085Z,94395.11
2019-05-09T21:02:08.243Z,94395.47
2019-05-09T21:04:38.366Z,94400.74
2019-05-09T21:07:08.526Z,94406.08
2019-05-09T21:09:38.653Z,94410.96
2019-05-09T21:12:11.129Z,94416.07
2019-05-09T21:14:40.689Z,94414.45
2019-05-09T21:17:10.958Z,94421.99
2019-05-09T21:19:41.190Z,94416.66
2019-05-09T21:22:11.455Z,94428.55
2019-05-09T21:24:41.716Z,94434.83
2019-05-09T21:27:11.865Z,94422.90
2019-05-09T21:29:42.057Z,94433.03
2019-05-09T21:32:12.206Z,94428.14
2019-05-09T21:34:43.484Z,94439.72
2019-05-09T21:37:14.554Z,94438.29
2019-05-09T21:39:44.593Z,94437.13
2019-05-09T21:42:14.669Z,94438.92
2019-05-09T21:44:44.638Z,94444.44
2019-05-09T21:47:14.641Z,94437.39
2019-05-09T21:49:44.678Z,94437.61
2019-05-09T21:52:14.682Z,94448.91
2019-05-09T21:54:44.655Z,94452.23
2019-05-09T21:57:14.696Z,94447.60
2019-05-09T21:59:44.761Z,94451.91
2019-05-09T22:02:15.498Z,94451.77
2019-05-09T22:04:45.642Z,94456.58
2019-05-09T22:07:15.657Z,94465.61
2019-05-09T22:09:45.630Z,94457.55
2019-05-09T22:12:15.639Z,94469.34
2019-05-09T22:14:45.667Z,94461.70
2019-05-09T22:17:17.386Z,94464.94
2019-05-09T22:19:47.567Z,94461.52
2019-05-09T22:22:17.575Z,94466.44
2019-05-09T22:24:47.548Z,94472.35
2019-05-09T22:27:18.667Z,94477.10
2019-05-09T22:29:48.596Z,94482.17
2019-05-09T22:32:21.913Z,94482.18
2019-05-09T22:34:50.414Z,94485.34
2019-05-09T22:37:20.423Z,94495.48
2019-05-09T22:39:50.410Z,94493.05
2019-05-09T22:42:20.427Z,94494.03
2019-05-09T22:44:50.733Z,94490.67
2019-05-09T22:47:20.739Z,94495.96
2019-05-09T22:49:52.713Z,94489.27
2019-05-09T22:52:22.553Z,94494.66
2019-05-09T22:54:52.558Z,94500.33
2019-05-09T22:57:22.528Z,94493.58
2019-05-09T22:59:52.547Z,94494.66
2019-05-09T23:02:22.508Z,94504.41
2019-05-09T23:04:52.518Z,94505.72
2019-05-09T23:07:22.495Z,94509.84
2019-05-09T23:09:52.574Z,94511.30
2019-05-09T23:12:22.568Z,94505.57
2019-05-09T23:14:52.542Z,94500.29
2019-05-09T23:17:22.557Z,94508.00
2019-05-09T23:19:52.525Z,94502.81
2019-05-09T23:22:24.101Z,94510.03
2019-05-09T23:24:54.070Z,94511.64
2019-05-09T23:27:24.145Z,94506.74
2019-05-09T23:29:54.040Z,94523.66
2019-05-09T23:32:25.693Z,94512.84
2019-05-09T23:34:55.678Z,94517.70
2019-05-09T23:37:25.763Z,94522.64
2019-05-09T23:39:57.434Z,94523.47
2019-05-09T23:42:27.437Z,94524.25
2019-05-09T23:44:57.408Z,94525.16
2019-05-09T23:47:27.418Z,94525.95
2019-05-09T23:49:57.391Z,94522.02
2019-05-09T23:52:27.404Z,94527.39
2019-05-09T23:55:15.358Z,94529.20
2019-05-09T23:58:02.990Z,94527.25
